Time;durP1;ratioP1;P1;durP2;ratioP2;P2;SDS_P1;SDS_P2;PMS_P1;PMS_P2;Temp;Humidity;BMP_temperature;BMP_pressure;BME280_temperature;BME280_humidity;BME280_pressure;Samples;Min_cycle;Max_cycle;Signal;HPM_P1;HPM_P2
2024/03/19 00:02:55;;;;;;;;;;;;;;;18.24;46.93;99855.88;10286341;28;930;-78
2024/03/19 00:07:51;;;;;;;;;;;;;;;18.24;47.04;99850.59;10286494;28;857;-77
2024/03/19 00:12:47;;;;;;;;;;;;;;;18.22;46.99;99849.81;10285915;28;771;-77
2024/03/19 00:17:43;;;;;;;;;;;;;;;18.22;46.94;99847.16;10285268;28;1906;-77
2024/03/19 00:22:39;;;;;;;;;;;;;;;18.22;46.87;99849.81;10285748;28;941;-77
2024/03/19 00:27:35;;;;;;;;;;;;;;;18.20;47.19;99855.13;10286261;28;876;-77
2024/03/19 00:32:30;;;;;;;;;;;;;;;18.20;46.98;99863.06;10286221;28;1248;-77
2024/03/19 00:37:27;;;;;;;;;;;;;;;18.18;47.07;99852.59;10285189;28;1926;-77
2024/03/19 00:42:23;;;;;;;;;;;;;;;18.17;47.08;99858.75;10285070;28;1037;-77
2024/03/19 00:47:18;;;;;;;;;;;;;;;18.16;46.92;99857.06;10285548;28;783;-77
2024/03/19 00:52:14;;;;;;;;;;;;;;;18.16;46.88;99853.56;10285533;28;838;-78
2024/03/19 00:57:10;;;;;;;;;;;;;;;18.15;47.01;99855.31;10285232;28;1957;-77
2024/03/19 01:02:06;;;;;;;;;;;;;;;18.15;46.84;99855.31;10285207;28;891;-77
2024/03/19 01:07:02;;;;;;;;;;;;;;;18.14;46.91;99851.00;10284442;28;964;-77
2024/03/19 01:11:58;;;;;;;;;;;;;;;18.14;47.04;99844.84;10285320;28;841;-77
2024/03/19 01:16:54;;;;;;;;;;;;;;;18.13;47.02;99849.28;10284255;28;1955;-77
2024/03/19 01:21:50;;;;;;;;;;;;;;;18.12;47.16;99847.56;10284267;28;894;-77
2024/03/19 01:26:46;;;;;;;;;;;;;;;18.12;46.89;99846.69;10292265;28;878;-77
2024/03/19 01:31:42;;;;;;;;;;;;;;;18.12;47.04;99842.28;10292799;28;1105;-77
2024/03/19 01:36:37;;;;;;;;;;;;;;;18.10;46.96;99841.50;10292457;28;1913;-77
2024/03/19 01:41:33;;;;;;;;;;;;;;;18.10;46.89;99844.16;10291367;28;877;-77
2024/03/19 01:46:29;;;;;;;;;;;;;;;18.09;46.95;99831.88;10291768;28;869;-77
2024/03/19 01:51:25;;;;;;;;;;;;;;;18.08;46.70;99831.94;10291524;28;913;-77
2024/03/19 01:56:21;;;;;;;;;;;;;;;18.07;46.80;99835.50;10291288;28;1947;-77
2024/03/19 02:01:17;;;;;;;;;;;;;;;18.07;47.05;99831.06;10291943;28;854;-77
2024/03/19 02:06:13;;;;;;;;;;;;;;;18.06;47.02;99832.00;10291132;28;882;-77
2024/03/19 02:11:09;;;;;;;;;;;;;;;18.06;46.95;99833.78;10291038;28;769;-77
2024/03/19 02:16:07;;;;;;;;;;;;;;;18.04;46.96;99827.72;10291168;28;1914;-77
2024/03/19 02:21:03;;;;;;;;;;;;;;;18.03;46.94;99820.75;10291129;28;936;-77
2024/03/19 02:25:59;;;;;;;;;;;;;;;18.02;46.98;99811.94;10290282;28;831;-77
2024/03/19 02:30:54;;;;;;;;;;;;;;;18.02;47.09;99814.56;10290393;28;1287;-77
2024/03/19 02:35:50;;;;;;;;;;;;;;;18.02;47.05;99800.53;10289704;28;1914;-77
2024/03/19 02:40:47;;;;;;;;;;;;;;;18.00;46.96;99800.63;10289727;28;960;-77
2024/03/19 02:45:43;;;;;;;;;;;;;;;18.00;46.84;99795.34;10289584;28;838;-77
2024/03/19 02:50:39;;;;;;;;;;;;;;;17.99;46.93;99796.25;10289379;28;845;-77
2024/03/19 02:55:35;;;;;;;;;;;;;;;17.98;46.87;99791.91;10289785;28;818;-77
2024/03/19 03:00:31;;;;;;;;;;;;;;;17.99;46.93;99787.50;10289443;28;1945;-77
2024/03/19 03:05:27;;;;;;;;;;;;;;;17.97;47.09;99777.00;10288103;28;1208;-77
2024/03/19 03:10:23;;;;;;;;;;;;;;;17.98;46.90;99776.09;10289214;28;847;-77
2024/03/19 03:15:19;;;;;;;;;;;;;;;17.96;47.07;99784.06;10288375;28;861;-77
2024/03/19 03:20:15;;;;;;;;;;;;;;;17.95;47.01;99782.34;10288892;28;1890;-77
2024/03/19 03:25:15;;;;;;;;;;;;;;;17.95;46.88;99786.78;10287955;28;786;-77
2024/03/19 03:30:11;;;;;;;;;;;;;;;17.95;46.96;99789.41;10287398;28;1321;-77
2024/03/19 03:35:07;;;;;;;;;;;;;;;17.94;46.96;99796.44;10288261;28;897;-77
2024/03/19 03:45:28;;;;;;;;;;;;;;;17.92;46.98;99792.16;10277704;28;1303;-77
2024/03/19 03:50:24;;;;;;;;;;;;;;;17.91;46.87;99801.84;10287723;28;861;-76
2024/03/19 03:55:20;;;;;;;;;;;;;;;17.90;46.89;99808.06;10287855;28;834;-77
2024/03/19 04:00:18;;;;;;;;;;;;;;;17.91;46.97;99812.41;10286611;28;1961;-77
2024/03/19 04:05:13;;;;;;;;;;;;;;;17.90;46.71;99812.50;10287033;28;862;-77
2024/03/19 04:10:10;;;;;;;;;;;;;;;17.90;46.93;99815.13;10286754;28;895;-77
2024/03/19 04:15:09;;;;;;;;;;;;;;;17.88;46.70;99814.31;10286131;28;887;-77
2024/03/19 04:20:05;;;;;;;;;;;;;;;17.88;46.81;99814.31;10286426;28;1894;-77
2024/03/19 04:25:01;;;;;;;;;;;;;;;17.86;46.86;99802.97;10286301;28;873;-77
2024/03/19 04:29:57;;;;;;;;;;;;;;;17.87;46.91;99810.00;10286067;28;1240;-77
2024/03/19 04:34:53;;;;;;;;;;;;;;;17.87;47.02;99810.00;10285472;28;854;-77
2024/03/19 04:39:48;;;;;;;;;;;;;;;17.85;46.91;99807.41;10285409;28;1917;-77
2024/03/19 04:44:44;;;;;;;;;;;;;;;17.84;46.89;99815.38;10285147;28;810;-77
2024/03/19 04:49:40;;;;;;;;;;;;;;;17.85;46.78;99823.22;10284997;28;871;-77
2024/03/19 04:54:37;;;;;;;;;;;;;;;17.86;46.86;99834.63;10284976;28;973;-77
2024/03/19 04:59:32;;;;;;;;;;;;;;;17.87;47.01;99839.00;10283776;28;1957;-77
2024/03/19 05:04:28;;;;;;;;;;;;;;;17.88;46.79;99838.06;10284034;28;920;-77
2024/03/19 05:09:25;;;;;;;;;;;;;;;17.89;46.89;99839.75;10284380;28;779;-77
2024/03/19 05:14:21;;;;;;;;;;;;;;;17.89;46.90;99842.41;10285518;28;879;-77
2024/03/19 05:19:17;;;;;;;;;;;;;;;17.91;46.83;99851.97;10284861;28;1949;-77
2024/03/19 05:24:13;;;;;;;;;;;;;;;17.91;46.89;99856.38;10284180;28;964;-77
2024/03/19 05:29:08;;;;;;;;;;;;;;;17.94;46.90;99861.53;10283796;28;1178;-77
2024/03/19 05:34:04;;;;;;;;;;;;;;;17.95;46.68;99871.16;10284816;28;842;-77
2024/03/19 05:39:00;;;;;;;;;;;;;;;17.94;46.81;99859.75;10283279;28;1965;-77
2024/03/19 05:43:56;;;;;;;;;;;;;;;17.96;46.86;99868.44;10283875;28;855;-77
2024/03/19 05:48:52;;;;;;;;;;;;;;;17.98;46.77;99870.19;10284349;28;794;-77
2024/03/19 05:53:48;;;;;;;;;;;;;;;17.98;46.88;99868.41;10284279;28;807;-77
2024/03/19 05:58:44;;;;;;;;;;;;;;;17.99;46.91;99869.25;10284253;28;1961;-77
2024/03/19 06:03:40;;;;;;;;;;;;;;;18.00;46.73;99878.88;10283474;28;1032;-77
2024/03/19 06:08:36;;;;;;;;;;;;;;;18.01;46.66;99880.59;10283562;28;795;-77
2024/03/19 06:13:31;;;;;;;;;;;;;;;18.01;46.69;99881.44;10291361;28;851;-77
2024/03/19 06:18:27;;;;;;;;;;;;;;;18.01;46.84;99892.00;10290543;28;1953;-77
2024/03/19 06:23:26;;;;;;;;;;;;;;;18.03;46.81;99890.16;10290722;28;1514;-77
2024/03/19 06:28:22;;;;;;;;;;;;;;;18.04;46.92;99891.00;10290866;28;821;-77
2024/03/19 06:33:18;;;;;;;;;;;;;;;18.03;46.83;99898.06;10290515;28;1156;-77
2024/03/19 06:38:14;;;;;;;;;;;;;;;18.06;46.79;99905.00;10289660;28;1969;-69
2024/03/19 06:43:10;;;;;;;;;;;;;;;18.07;46.85;99893.53;10289917;28;910;-69
2024/03/19 06:48:07;;;;;;;;;;;;;;;18.08;46.67;99896.09;10290093;28;786;-71
2024/03/19 06:53:02;;;;;;;;;;;;;;;18.08;46.85;99887.34;10288672;28;870;-69
2024/03/19 06:57:58;;;;;;;;;;;;;;;18.06;46.68;99895.31;10289541;28;1910;-68
2024/03/19 07:02:58;;;;;;;;;;;;;;;18.06;46.87;99907.63;10288914;28;893;-68
2024/03/19 07:07:54;;;;;;;;;;;;;;;18.05;46.96;99919.97;10290038;28;867;-68
2024/03/19 07:12:51;;;;;;;;;;;;;;;18.04;46.88;99927.94;10289148;28;948;-68
2024/03/19 07:17:51;;;;;;;;;;;;;;;18.01;46.67;99926.28;10288337;28;1898;-69
2024/03/19 07:22:47;;;;;;;;;;;;;;;18.00;46.90;99929.84;10287300;28;782;-68
2024/03/19 07:27:43;;;;;;;;;;;;;;;17.99;47.05;99938.66;10288528;28;1100;-68
2024/03/19 07:32:39;;;;;;;;;;;;;;;17.96;46.96;99938.81;10287906;28;1452;-68
2024/03/19 07:37:36;;;;;;;;;;;;;;;17.95;46.89;99942.38;10287460;28;1977;-69
2024/03/19 07:42:32;;;;;;;;;;;;;;;17.94;47.22;99943.28;10287279;28;894;-73
2024/03/19 07:47:28;;;;;;;;;;;;;;;17.94;47.07;99949.41;10287812;28;922;-74
2024/03/19 07:52:23;;;;;;;;;;;;;;;17.93;47.11;99952.97;10286400;28;904;-69
2024/03/19 07:57:19;;;;;;;;;;;;;;;17.93;47.09;99967.94;10287602;28;1890;-69
2024/03/19 08:02:15;;;;;;;;;;;;;;;17.95;47.07;99971.38;10318659;28;1071;-70
2024/03/19 08:07:11;;;;;;;;;;;;;;;17.96;47.24;99978.38;10327304;28;922;-71
2024/03/19 08:12:07;;;;;;;;;;;;;;;17.96;47.22;99979.22;10326841;28;1026;-72
2024/03/19 08:17:03;;;;;;;;;;;;;;;17.98;47.28;99983.59;10326638;28;1889;-71
2024/03/19 08:21:59;;;;;;;;;;;;;;;18.00;47.26;99985.25;10327201;28;820;-70
2024/03/19 08:26:55;;;;;;;;;;;;;;;18.00;47.19;99982.59;10327029;28;850;-71
2024/03/19 08:31:51;;;;;;;;;;;;;;;18.03;47.46;99989.53;10326287;28;1124;-70
2024/03/19 08:36:47;;;;;;;;;;;;;;;18.04;47.64;99992.09;10326584;28;1973;-74
2024/03/19 08:41:43;;;;;;;;;;;;;;;18.03;47.57;99998.31;10325902;28;960;-70
2024/03/19 08:46:38;;;;;;;;;;;;;;;18.05;47.52;99993.84;10326082;28;767;-70
2024/03/19 08:51:34;;;;;;;;;;;;;;;18.06;47.30;99992.91;10325717;28;810;-71
2024/03/19 08:56:34;;;;;;;;;;;;;;;18.07;47.54;99994.59;10326131;28;1951;-70
2024/03/19 09:01:30;;;;;;;;;;;;;;;18.08;47.39;100000.75;10325458;28;799;-69
2024/03/19 09:06:26;;;;;;;;;;;;;;;18.10;47.38;100004.16;10324198;28;884;-78
2024/03/19 09:11:22;;;;;;;;;;;;;;;18.10;47.46;100005.06;10322933;28;1047;-79
2024/03/19 09:16:18;;;;;;;;;;;;;;;18.11;47.31;100005.91;10324563;28;1910;-79
2024/03/19 09:21:14;;;;;;;;;;;;;;;18.12;47.53;100004.97;10325670;28;822;-77
2024/03/19 09:26:10;;;;;;;;;;;;;;;18.13;47.13;100004.03;10325543;28;1013;-77
2024/03/19 09:31:06;;;;;;;;;;;;;;;18.14;47.50;100008.41;10324750;28;1144;-77
2024/03/19 09:36:02;;;;;;;;;;;;;;;18.15;47.38;99997.78;10325977;28;941;-77
2024/03/19 09:40:58;;;;;;;;;;;;;;;18.16;47.09;99988.13;10325034;28;1914;-77
2024/03/19 09:45:54;;;;;;;;;;;;;;;18.16;47.30;99991.59;10328014;28;908;-79
2024/03/19 09:50:51;;;;;;;;;;;;;;;18.16;47.35;99988.97;10332420;28;956;-73
2024/03/19 09:55:47;;;;;;;;;;;;;;;18.18;47.28;99983.59;10332817;28;783;-73
2024/03/19 10:00:42;;;;;;;;;;;;;;;18.21;47.55;99985.25;10331931;28;1961;-74
2024/03/19 10:05:39;;;;;;;;;;;;;;;18.23;47.32;99972.88;10331861;28;845;-75
2024/03/19 10:10:35;;;;;;;;;;;;;;;18.25;47.54;99971.03;10329859;28;1085;-74
2024/03/19 10:15:31;;;;;;;;;;;;;;;18.26;47.55;99971.00;10311368;28;1810;-73
2024/03/19 10:20:26;;;;;;;;;;;;;;;18.27;47.49;99972.69;10324937;28;1955;-74
2024/03/19 10:25:22;;;;;;;;;;;;;;;18.29;47.51;99970.84;10290257;28;782;-73
2024/03/19 10:30:18;;;;;;;;;;;;;;;18.31;47.47;99968.13;10289926;28;1141;-74
2024/03/19 10:35:14;;;;;;;;;;;;;;;18.32;47.56;99961.94;10289870;28;834;-74
2024/03/19 10:40:11;;;;;;;;;;;;;;;18.33;47.51;99961.88;10289540;28;1910;-72
2024/03/19 10:45:07;;;;;;;;;;;;;;;18.34;47.54;99957.47;10289522;28;777;-73
2024/03/19 10:50:04;;;;;;;;;;;;;;;18.33;47.61;99951.31;10289280;28;870;-73
2024/03/19 10:55:00;;;;;;;;;;;;;;;18.34;47.61;99952.19;10288210;28;793;-72
2024/03/19 10:59:56;;;;;;;;;;;;;;;18.35;47.49;99952.13;10288306;28;1905;-73
2024/03/19 11:04:52;;;;;;;;;;;;;;;18.34;47.46;99946.91;10288650;28;834;-73
2024/03/19 11:09:48;;;;;;;;;;;;;;;18.36;47.51;99950.31;10288368;28;794;-74
2024/03/19 11:14:44;;;;;;;;;;;;;;;18.36;47.51;99952.97;10288174;28;843;-74
2024/03/19 11:19:40;;;;;;;;;;;;;;;18.38;47.70;99946.69;10287474;28;1959;-74
2024/03/19 11:24:36;;;;;;;;;;;;;;;18.40;47.54;99942.22;10287852;28;930;-74
2024/03/19 11:29:33;;;;;;;;;;;;;;;18.42;47.62;99942.16;10287415;28;1157;-73
2024/03/19 11:34:29;;;;;;;;;;;;;;;18.43;47.46;99946.50;10287973;28;866;-74
2024/03/19 11:39:25;;;;;;;;;;;;;;;18.43;47.31;99938.59;10287154;28;1917;-73
2024/03/19 11:44:21;;;;;;;;;;;;;;;18.43;47.68;99935.94;10287135;28;914;-72
2024/03/19 11:49:17;;;;;;;;;;;;;;;18.43;47.75;99930.69;10286971;28;891;-72
2024/03/19 11:54:13;;;;;;;;;;;;;;;18.42;47.59;99926.34;10287502;28;850;-72
2024/03/19 11:59:09;;;;;;;;;;;;;;;18.44;47.53;99929.75;10286411;28;1898;-73
2024/03/19 12:04:05;;;;;;;;;;;;;;;18.42;47.81;99920.16;10287072;28;870;-73
2024/03/19 12:09:02;;;;;;;;;;;;;;;18.42;47.76;99920.16;10308305;28;1251;-72
2024/03/19 12:13:58;;;;;;;;;;;;;;;18.41;47.80;99921.97;10326647;28;892;-73
2024/03/19 12:18:54;;;;;;;;;;;;;;;18.42;47.76;99921.06;10326651;28;1897;-72
2024/03/19 12:23:50;;;;;;;;;;;;;;;18.42;47.67;99917.53;10326553;28;841;-73
2024/03/19 12:28:46;;;;;;;;;;;;;;;18.40;47.49;99921.09;10324771;28;1504;-72
2024/03/19 12:33:43;;;;;;;;;;;;;;;18.42;47.63;99912.25;10325971;28;1182;-72
2024/03/19 12:38:39;;;;;;;;;;;;;;;18.41;47.55;99911.41;10325991;28;1914;-72
2024/03/19 12:43:35;;;;;;;;;;;;;;;18.42;47.58;99907.84;10325769;28;914;-72
2024/03/19 12:48:30;;;;;;;;;;;;;;;18.42;47.68;99894.66;10325488;28;964;-71
2024/03/19 12:53:26;;;;;;;;;;;;;;;18.43;47.61;99893.72;10325501;28;928;-72
2024/03/19 12:58:22;;;;;;;;;;;;;;;18.43;47.90;99904.28;10325182;28;1898;-71
2024/03/19 13:03:18;;;;;;;;;;;;;;;18.43;47.75;99900.78;10325257;28;806;-71
2024/03/19 13:08:14;;;;;;;;;;;;;;;18.43;47.67;99893.72;10324689;28;895;-72
2024/03/19 13:13:10;;;;;;;;;;;;;;;18.45;47.67;99896.31;10324844;28;918;-71
2024/03/19 13:18:06;;;;;;;;;;;;;;;18.57;47.39;99893.97;10324329;28;1959;-72
2024/03/19 13:23:04;;;;;;;;;;;;;;;18.62;47.40;99888.50;10332198;28;766;-75
2024/03/19 13:27:59;;;;;;;;;;;;;;;18.63;47.36;99892.88;10333248;28;1020;-76
2024/03/19 13:32:58;;;;;;;;;;;;;;;18.68;47.26;99884.72;10333672;28;1156;-75
2024/03/19 13:37:54;;;;;;;;;;;;;;;18.59;47.49;99886.84;10332972;28;1890;-75
2024/03/19 13:42:50;;;;;;;;;;;;;;;18.56;47.44;99894.91;10333372;28;827;-75
2024/03/19 13:47:46;;;;;;;;;;;;;;;18.56;47.54;99891.41;10332890;28;909;-75
2024/03/19 13:52:43;;;;;;;;;;;;;;;18.55;47.69;99893.19;10332579;28;850;-75
2024/03/19 13:57:39;;;;;;;;;;;;;;;18.55;47.68;99885.28;10332734;28;1898;-75
2024/03/19 14:02:35;;;;;;;;;;;;;;;18.54;47.69;99893.25;10332113;28;926;-75
2024/03/19 14:07:34;;;;;;;;;;;;;;;18.55;47.62;99901.13;10331001;28;918;-74
2024/03/19 14:12:30;;;;;;;;;;;;;;;18.62;47.47;99906.97;10331396;28;966;-75
2024/03/19 14:17:26;;;;;;;;;;;;;;;18.58;47.49;99900.97;10331403;28;1902;-74
2024/03/19 14:22:22;;;;;;;;;;;;;;;18.57;47.61;99893.13;10331301;28;739;-75
2024/03/19 14:27:18;;;;;;;;;;;;;;;18.58;47.57;99895.69;10331183;28;862;-75
2024/03/19 14:32:14;;;;;;;;;;;;;;;18.57;47.44;99893.97;10332247;28;1303;-75
2024/03/19 14:37:10;;;;;;;;;;;;;;;18.57;47.54;99893.97;10331122;28;1967;-75
2024/03/19 14:42:05;;;;;;;;;;;;;;;18.57;47.43;99893.13;10330220;28;971;-76
2024/03/19 14:47:01;;;;;;;;;;;;;;;18.59;47.52;99901.84;10330515;28;855;-75
2024/03/19 14:51:57;;;;;;;;;;;;;;;18.57;47.45;99893.97;10329328;28;886;-75
2024/03/19 14:56:53;;;;;;;;;;;;;;;18.57;47.59;99899.25;10328384;28;1949;-75
2024/03/19 15:01:49;;;;;;;;;;;;;;;18.58;47.59;99903.63;10329308;28;865;-76
2024/03/19 15:06:45;;;;;;;;;;;;;;;18.59;47.36;99907.97;10329319;28;905;-76
2024/03/19 15:11:41;;;;;;;;;;;;;;;18.59;47.50;99904.47;10329399;28;875;-75
2024/03/19 15:16:37;;;;;;;;;;;;;;;18.58;47.56;99906.25;10329096;28;1959;-75
2024/03/19 15:21:33;;;;;;;;;;;;;;;18.57;47.75;99899.25;10329218;28;782;-75
2024/03/19 15:26:30;;;;;;;;;;;;;;;18.57;47.57;99899.25;10328864;28;835;-76
2024/03/19 15:31:26;;;;;;;;;;;;;;;18.59;47.94;99899.19;10328791;28;1420;-81
2024/03/19 15:36:22;;;;;;;;;;;;;;;18.58;48.12;99900.97;10328308;28;1913;-75
2024/03/19 15:41:18;;;;;;;;;;;;;;;18.58;47.94;99903.63;10327255;28;1044;-76
2024/03/19 15:46:14;;;;;;;;;;;;;;;18.58;48.24;99903.63;10328651;28;833;-76
2024/03/19 15:51:10;;;;;;;;;;;;;;;18.62;47.78;99888.50;10328448;28;794;-76
2024/03/19 15:56:06;;;;;;;;;;;;;;;18.74;47.63;99887.94;10327052;28;956;-76
2024/03/19 16:01:02;;;;;;;;;;;;;;;18.71;47.63;99871.41;10327965;28;1898;-77
2024/03/19 16:05:58;;;;;;;;;;;;;;;18.65;47.62;99869.00;10327631;28;873;-76
2024/03/19 16:10:54;;;;;;;;;;;;;;;18.62;47.70;99877.94;10327342;28;858;-76
2024/03/19 16:15:50;;;;;;;;;;;;;;;18.60;47.59;99885.94;10327139;28;989;-76
2024/03/19 16:20:46;;;;;;;;;;;;;;;18.60;47.72;99896.50;10326888;28;1897;-75
2024/03/19 16:25:42;;;;;;;;;;;;;;;18.60;47.63;99895.59;10326936;28;853;-75
2024/03/19 16:30:37;;;;;;;;;;;;;;;18.59;47.53;99905.31;10326084;28;1233;-76
2024/03/19 16:35:34;;;;;;;;;;;;;;;18.57;47.70;99915.09;10326555;28;917;-75
2024/03/19 16:40:30;;;;;;;;;;;;;;;18.57;47.68;99924.78;10325670;28;1910;-75
2024/03/19 16:45:26;;;;;;;;;;;;;;;18.57;47.85;99922.16;10326217;28;945;-75
2024/03/19 16:50:22;;;;;;;;;;;;;;;18.57;47.73;99923.00;10325514;28;914;-75
2024/03/19 16:55:18;;;;;;;;;;;;;;;18.57;47.47;99917.72;10326005;28;814;-75
2024/03/19 17:00:14;;;;;;;;;;;;;;;18.57;47.80;99920.38;10326090;28;1898;-75
2024/03/19 17:05:11;;;;;;;;;;;;;;;18.58;47.88;99919.47;10325232;28;881;-75
2024/03/19 17:10:07;;;;;;;;;;;;;;;18.57;47.70;99925.63;10325041;28;878;-76
2024/03/19 17:15:02;;;;;;;;;;;;;;;18.57;47.85;99924.78;10324985;28;934;-76
2024/03/19 17:19:58;;;;;;;;;;;;;;;18.58;47.74;99929.16;10324810;28;1959;-75
2024/03/19 17:24:55;;;;;;;;;;;;;;;18.59;47.72;99928.22;10325459;28;889;-75
2024/03/19 17:29:51;;;;;;;;;;;;;;;18.57;47.81;99938.00;10325266;28;1219;-74
2024/03/19 17:34:47;;;;;;;;;;;;;;;18.58;47.87;99945.84;10324719;28;884;-75
2024/03/19 17:39:43;;;;;;;;;;;;;;;18.60;47.83;99941.38;10325088;28;1977;-74
2024/03/19 17:44:39;;;;;;;;;;;;;;;18.59;47.78;99937.00;10325187;28;873;-75
2024/03/19 17:49:35;;;;;;;;;;;;;;;18.60;47.64;99944.00;10323764;28;999;-75
2024/03/19 17:54:31;;;;;;;;;;;;;;;18.60;47.82;99949.28;10324246;28;962;-75
2024/03/19 17:59:27;;;;;;;;;;;;;;;18.61;47.60;99956.28;10323980;28;1894;-75
2024/03/19 18:04:23;;;;;;;;;;;;;;;18.60;47.78;99948.41;10324053;28;976;-75
2024/03/19 18:09:19;;;;;;;;;;;;;;;18.61;47.68;99956.28;10332214;28;897;-75
2024/03/19 18:14:16;;;;;;;;;;;;;;;18.60;47.78;99965.13;10332339;28;854;-75
2024/03/19 18:19:12;;;;;;;;;;;;;;;18.62;47.70;99957.13;10331654;28;1953;-75
2024/03/19 18:24:08;;;;;;;;;;;;;;;18.62;47.81;99962.41;10331102;28;949;-73
2024/03/19 18:29:04;;;;;;;;;;;;;;;18.62;47.77;99960.63;10330856;28;1343;-88
2024/03/19 18:34:00;;;;;;;;;;;;;;;18.61;47.79;99961.56;10331001;28;857;-72
2024/03/19 18:38:56;;;;;;;;;;;;;;;18.62;47.83;99975.59;10331271;28;1906;-72
2024/03/19 18:43:52;;;;;;;;;;;;;;;18.63;47.78;99974.72;10330786;28;996;-72
2024/03/19 18:48:48;;;;;;;;;;;;;;;18.62;47.75;99971.19;10330411;28;902;-72
2024/03/19 18:53:44;;;;;;;;;;;;;;;18.61;47.64;99961.56;10331049;28;881;-72
2024/03/19 18:58:40;;;;;;;;;;;;;;;18.63;47.56;99964.16;10330514;28;1894;-72
2024/03/19 19:03:36;;;;;;;;;;;;;;;18.64;47.48;99972.91;10330394;28;957;-72
2024/03/19 19:08:33;;;;;;;;;;;;;;;18.63;47.82;99972.06;10329670;28;854;-72
2024/03/19 19:13:29;;;;;;;;;;;;;;;18.64;47.47;99978.19;10329433;28;903;-71
2024/03/19 19:18:25;;;;;;;;;;;;;;;18.65;47.74;99977.25;10329391;28;1969;-72
2024/03/19 19:23:21;;;;;;;;;;;;;;;18.65;47.63;99985.19;10329666;28;933;-72
2024/03/19 19:28:16;;;;;;;;;;;;;;;18.65;47.33;99979.91;10329950;28;991;-71
2024/03/19 19:33:15;;;;;;;;;;;;;;;18.65;47.58;99993.09;10329815;28;1244;-72
2024/03/19 19:38:12;;;;;;;;;;;;;;;18.66;47.32;100003.63;10327741;28;1914;-72
2024/03/19 19:43:07;;;;;;;;;;;;;;;18.66;47.59;100008.91;10329010;28;917;-71
2024/03/19 19:48:03;;;;;;;;;;;;;;;18.65;47.42;100006.31;10328108;28;806;-71
2024/03/19 19:52:59;;;;;;;;;;;;;;;18.65;47.53;100009.78;10328408;28;853;-72
2024/03/19 19:57:57;;;;;;;;;;;;;;;18.67;47.59;100001.81;10328113;28;1910;-73
2024/03/19 20:02:53;;;;;;;;;;;;;;;18.68;47.53;100008.81;10326554;28;995;-76
2024/03/19 20:07:49;;;;;;;;;;;;;;;18.68;47.65;100003.53;10326928;28;975;-76
2024/03/19 20:12:44;;;;;;;;;;;;;;;18.69;47.69;99998.19;10326768;28;957;-76
2024/03/19 20:17:40;;;;;;;;;;;;;;;18.70;47.64;100001.69;10327234;28;1898;-76
2024/03/19 20:22:36;;;;;;;;;;;;;;;18.70;47.65;99991.97;10327018;28;901;-77
2024/03/19 20:27:32;;;;;;;;;;;;;;;18.71;47.68;99998.13;10326835;28;798;-76
2024/03/19 20:32:28;;;;;;;;;;;;;;;18.71;47.39;99996.34;10327093;28;1392;-76
2024/03/19 20:37:24;;;;;;;;;;;;;;;18.72;47.61;99997.22;10325867;28;1910;-76
2024/03/19 20:42:20;;;;;;;;;;;;;;;18.71;47.45;99996.34;10326408;28;819;-80
2024/03/19 20:47:16;;;;;;;;;;;;;;;18.72;47.41;99994.56;10326396;28;969;-75
2024/03/19 20:52:12;;;;;;;;;;;;;;;18.72;47.34;99990.13;10326353;28;901;-75
2024/03/19 20:57:09;;;;;;;;;;;;;;;18.71;47.61;99985.78;10325396;28;1965;-75
2024/03/19 21:02:05;;;;;;;;;;;;;;;18.72;47.43;99986.66;10325897;28;865;-75
2024/03/19 21:07:01;;;;;;;;;;;;;;;18.72;47.40;99981.38;10324595;28;1369;-79
2024/03/19 21:11:57;;;;;;;;;;;;;;;18.71;47.42;99984.94;10324024;28;1038;-84
2024/03/19 21:16:53;;;;;;;;;;;;;;;18.71;47.63;99984.94;10324378;28;1957;-81
2024/03/19 21:21:49;;;;;;;;;;;;;;;18.71;47.50;99980.50;10323843;28;997;-76
2024/03/19 21:26:45;;;;;;;;;;;;;;;18.71;47.58;99992.84;10324203;28;888;-74
2024/03/19 21:31:41;;;;;;;;;;;;;;;18.71;47.56;99987.56;10324796;28;1101;-74
2024/03/19 21:36:37;;;;;;;;;;;;;;;18.70;47.63;99984.06;10324446;28;1918;-74
2024/03/19 21:41:32;;;;;;;;;;;;;;;18.69;47.59;99985.00;10328104;28;831;-75
2024/03/19 21:46:28;;;;;;;;;;;;;;;18.69;47.46;99985.00;10312014;28;1954;-71
2024/03/19 21:51:24;;;;;;;;;;;;;;;18.69;47.53;99984.13;10327742;28;822;-70
2024/03/19 21:56:20;;;;;;;;;;;;;;;18.68;47.53;99978.00;10332737;28;909;-81
2024/03/19 22:01:16;;;;;;;;;;;;;;;18.68;47.43;99983.28;10332020;28;1889;-72
2024/03/19 22:06:12;;;;;;;;;;;;;;;18.67;47.48;99976.28;10331145;28;846;-75
2024/03/19 22:11:08;;;;;;;;;;;;;;;18.68;47.44;99982.41;10331530;28;885;-76
2024/03/19 22:16:04;;;;;;;;;;;;;;;18.66;47.47;99981.63;10329261;28;913;-72
2024/03/19 22:21:00;;;;;;;;;;;;;;;18.66;47.49;99984.28;10331270;28;1894;-73
2024/03/19 22:25:56;;;;;;;;;;;;;;;18.64;47.45;99986.13;10330774;28;902;-74
2024/03/19 22:30:52;;;;;;;;;;;;;;;18.62;47.41;99989.66;10330575;28;1808;-77
2024/03/19 22:35:48;;;;;;;;;;;;;;;18.61;47.52;99995.03;10331030;28;826;-74
2024/03/19 22:40:48;;;;;;;;;;;;;;;18.58;47.46;99993.38;10330919;28;1922;-74
2024/03/19 22:45:44;;;;;;;;;;;;;;;18.57;47.46;99996.91;10330565;28;845;-74
2024/03/19 22:50:41;;;;;;;;;;;;;;;18.56;47.71;100002.28;10327747;28;1172;-74
2024/03/19 22:55:37;;;;;;;;;;;;;;;18.54;47.40;99997.06;10329651;28;902;-74
2024/03/19 23:05:29;;;;;;;;;;;;;;;18.51;47.42;99981.34;10329288;28;978;-74
2024/03/19 23:10:25;;;;;;;;;;;;;;;18.50;47.51;99982.28;10329850;28;783;-74
2024/03/19 23:15:21;;;;;;;;;;;;;;;18.48;47.42;99986.78;10329529;28;793;-74
2024/03/19 23:20:17;;;;;;;;;;;;;;;18.45;47.31;99986.91;10329787;28;1893;-84
2024/03/19 23:25:13;;;;;;;;;;;;;;;18.44;47.23;99985.16;10329121;28;836;-85
2024/03/19 23:30:09;;;;;;;;;;;;;;;18.42;47.41;99987.03;10329832;28;1141;-78
2024/03/19 23:35:05;;;;;;;;;;;;;;;18.41;47.53;99995.84;10329358;28;800;-86
2024/03/19 23:40:01;;;;;;;;;;;;;;;18.39;47.33;99987.13;10328349;28;1973;-79
2024/03/19 23:44:57;;;;;;;;;;;;;;;18.39;47.57;99989.78;10328823;28;858;-78
2024/03/19 23:49:52;;;;;;;;;;;;;;;18.36;47.56;99985.47;10328089;28;896;-79
2024/03/19 23:54:48;;;;;;;;;;;;;;;18.35;47.57;99981.16;10328498;28;787;-78
2024/03/19 23:59:44;;;;;;;;;;;;;;;18.33;47.62;99977.69;10327881;28;1959;-78
